sensor_id;sensor_type;location;lat;lon;timestamp;pressure;altitude;pressure_sealevel;temperature;humidity
56241;BME280;42155;53.096;23.226;2023-03-18T00:01:01;100805.31;;;2.58;50.61
56241;BME280;42155;53.096;23.226;2023-03-18T00:03:01;100749.59;;;2.26;50.62
56241;BME280;42155;53.096;23.226;2023-03-18T00:05:02;100801.06;;;2.53;50.80
56241;BME280;42155;53.096;23.226;2023-03-18T00:07:03;100785.88;;;2.38;50.85
56241;BME280;42155;53.096;23.226;2023-03-18T00:09:03;100776.31;;;2.37;51.07
56241;BME280;42155;53.096;23.226;2023-03-18T00:11:05;100772.03;;;2.35;50.86
56241;BME280;42155;53.096;23.226;2023-03-18T00:13:05;100794.34;;;2.46;50.87
56241;BME280;42155;53.096;23.226;2023-03-18T00:15:09;100779.84;;;2.36;51.03
56241;BME280;42155;53.096;23.226;2023-03-18T00:17:10;100759.50;;;2.18;51.09
56241;BME280;42155;53.096;23.226;2023-03-18T00:19:10;100768.00;;;2.24;51.20
56241;BME280;42155;53.096;23.226;2023-03-18T00:21:10;100795.59;;;2.35;50.73
56241;BME280;42155;53.096;23.226;2023-03-18T00:23:11;100784.31;;;2.33;50.88
56241;BME280;42155;53.096;23.226;2023-03-18T00:25:13;100740.72;;;2.05;51.30
56241;BME280;42155;53.096;23.226;2023-03-18T00:27:14;100768.84;;;2.25;51.07
56241;BME280;42155;53.096;23.226;2023-03-18T00:29:14;100732.19;;;1.98;50.83
56241;BME280;42155;53.096;23.226;2023-03-18T00:31:14;100763.88;;;2.17;51.24
56241;BME280;42155;53.096;23.226;2023-03-18T00:33:15;100775.94;;;2.21;51.56
56241;BME280;42155;53.096;23.226;2023-03-18T00:35:16;100763.00;;;2.17;50.93
56241;BME280;42155;53.096;23.226;2023-03-18T00:37:16;100761.44;;;2.13;51.10
56241;BME280;42155;53.096;23.226;2023-03-18T00:39:16;100767.44;;;2.15;51.27
56241;BME280;42155;53.096;23.226;2023-03-18T00:41:17;100769.28;;;2.13;51.25
56241;BME280;42155;53.096;23.226;2023-03-18T00:43:22;100757.13;;;2.10;51.32
56241;BME280;42155;53.096;23.226;2023-03-18T00:45:23;100765.03;;;2.09;51.29
56241;BME280;42155;53.096;23.226;2023-03-18T00:47:23;100759.97;;;2.04;51.33
56241;BME280;42155;53.096;23.226;2023-03-18T00:49:24;100765.13;;;2.06;52.09
56241;BME280;42155;53.096;23.226;2023-03-18T00:51:25;100734.22;;;1.90;52.10
56241;BME280;42155;53.096;23.226;2023-03-18T00:53:26;100741.78;;;1.99;52.12
56241;BME280;42155;53.096;23.226;2023-03-18T00:55:27;100718.91;;;1.78;52.16
56241;BME280;42155;53.096;23.226;2023-03-18T00:57:28;100759.97;;;2.02;52.18
56241;BME280;42155;53.096;23.226;2023-03-18T00:59:29;100758.34;;;2.00;51.99
56241;BME280;42155;53.096;23.226;2023-03-18T01:01:29;100774.00;;;2.01;51.88
56241;BME280;42155;53.096;23.226;2023-03-18T01:03:30;100770.47;;;2.02;51.73
56241;BME280;42155;53.096;23.226;2023-03-18T01:05:32;100768.75;;;2.01;51.74
56241;BME280;42155;53.096;23.226;2023-03-18T01:07:33;100741.25;;;1.88;51.82
56241;BME280;42155;53.096;23.226;2023-03-18T01:09:33;100734.53;;;1.81;52.10
56241;BME280;42155;53.096;23.226;2023-03-18T01:11:34;100760.91;;;2.01;52.25
56241;BME280;42155;53.096;23.226;2023-03-18T01:13:35;100754.88;;;1.99;51.88
56241;BME280;42155;53.096;23.226;2023-03-18T01:15:35;100746.31;;;1.94;52.23
56241;BME280;42155;53.096;23.226;2023-03-18T01:17:36;100718.91;;;1.78;51.84
56241;BME280;42155;53.096;23.226;2023-03-18T01:19:36;100763.72;;;1.95;52.40
56241;BME280;42155;53.096;23.226;2023-03-18T01:21:37;100753.44;;;1.89;52.39
56241;BME280;42155;53.096;23.226;2023-03-18T01:23:37;100749.94;;;1.90;52.33
56241;BME280;42155;53.096;23.226;2023-03-18T01:25:38;100755.03;;;1.93;52.18
56241;BME280;42155;53.096;23.226;2023-03-18T01:27:38;100760.28;;;1.93;52.03
56241;BME280;42155;53.096;23.226;2023-03-18T01:29:38;100763.91;;;1.89;52.07
56241;BME280;42155;53.096;23.226;2023-03-18T01:31:39;100761.19;;;1.92;52.21
56241;BME280;42155;53.096;23.226;2023-03-18T01:33:39;100724.44;;;1.69;52.30
56241;BME280;42155;53.096;23.226;2023-03-18T01:35:40;100739.69;;;1.83;52.45
56241;BME280;42155;53.096;23.226;2023-03-18T01:37:41;100763.81;;;1.92;52.47
56241;BME280;42155;53.096;23.226;2023-03-18T01:39:41;100742.25;;;1.84;52.64
56241;BME280;42155;53.096;23.226;2023-03-18T01:41:42;100750.78;;;1.91;52.45
56241;BME280;42155;53.096;23.226;2023-03-18T01:43:43;100754.31;;;1.90;52.44
56241;BME280;42155;53.096;23.226;2023-03-18T01:45:47;100740.50;;;1.85;52.94
56241;BME280;42155;53.096;23.226;2023-03-18T01:47:48;100716.72;;;1.64;52.59
56241;BME280;42155;53.096;23.226;2023-03-18T01:49:49;100748.31;;;1.86;52.59
56241;BME280;42155;53.096;23.226;2023-03-18T01:52:02;100747.53;;;1.83;52.98
56241;BME280;42155;53.096;23.226;2023-03-18T01:54:04;100746.63;;;1.84;52.74
56241;BME280;42155;53.096;23.226;2023-03-18T01:56:05;100729.72;;;1.67;52.82
56241;BME280;42155;53.096;23.226;2023-03-18T01:58:24;100732.34;;;1.67;52.63
56241;BME280;42155;53.096;23.226;2023-03-18T02:00:26;100735.91;;;1.65;52.90
56241;BME280;42155;53.096;23.226;2023-03-18T02:02:26;100752.16;;;1.74;53.37
56241;BME280;42155;53.096;23.226;2023-03-18T02:04:31;100705.06;;;1.46;53.06
56241;BME280;42155;53.096;23.226;2023-03-18T02:06:33;100726.63;;;1.55;53.00
56241;BME280;42155;53.096;23.226;2023-03-18T02:08:35;100742.91;;;1.64;53.79
56241;BME280;42155;53.096;23.226;2023-03-18T02:10:36;100736.88;;;1.62;53.09
56241;BME280;42155;53.096;23.226;2023-03-18T02:12:40;100737.00;;;1.58;53.30
56241;BME280;42155;53.096;23.226;2023-03-18T02:14:41;100731.91;;;1.53;53.68
56241;BME280;42155;53.096;23.226;2023-03-18T02:16:46;100702.75;;;1.37;53.83
56241;BME280;42155;53.096;23.226;2023-03-18T02:18:51;100696.88;;;1.31;53.75
56241;BME280;42155;53.096;23.226;2023-03-18T02:23:30;100746.56;;;1.59;53.49
56241;BME280;42155;53.096;23.226;2023-03-18T02:25:51;100743.13;;;1.57;54.18
56241;BME280;42155;53.096;23.226;2023-03-18T02:28:06;100733.06;;;1.43;54.03
56241;BME280;42155;53.096;23.226;2023-03-18T02:30:17;100745.00;;;1.53;53.92
56241;BME280;42155;53.096;23.226;2023-03-18T02:32:20;100729.00;;;1.34;53.90
56241;BME280;42155;53.096;23.226;2023-03-18T02:34:22;100727.13;;;1.39;53.76
56241;BME280;42155;53.096;23.226;2023-03-18T02:36:26;100739.09;;;1.46;53.99
56241;BME280;42155;53.096;23.226;2023-03-18T02:38:27;100742.59;;;1.45;54.03
56241;BME280;42155;53.096;23.226;2023-03-18T02:40:31;100740.91;;;1.44;53.99
56241;BME280;42155;53.096;23.226;2023-03-18T02:42:31;100700.75;;;1.17;54.63
56241;BME280;42155;53.096;23.226;2023-03-18T02:44:36;100732.63;;;1.30;54.48
56241;BME280;42155;53.096;23.226;2023-03-18T02:46:58;100723.94;;;1.28;55.02
56241;BME280;42155;53.096;23.226;2023-03-18T02:49:02;100741.19;;;1.34;54.67
56241;BME280;42155;53.096;23.226;2023-03-18T02:51:05;100679.53;;;0.98;54.62
56241;BME280;42155;53.096;23.226;2023-03-18T02:53:05;100667.81;;;0.82;54.64
56241;BME280;42155;53.096;23.226;2023-03-18T02:55:06;100725.13;;;1.18;55.01
56241;BME280;42155;53.096;23.226;2023-03-18T02:57:06;100737.13;;;1.25;55.11
56241;BME280;42155;53.096;23.226;2023-03-18T02:59:07;100712.28;;;1.10;55.28
56241;BME280;42155;53.096;23.226;2023-03-18T03:01:08;100697.00;;;0.96;54.81
56241;BME280;42155;53.096;23.226;2023-03-18T03:03:08;100704.63;;;1.04;55.00
56241;BME280;42155;53.096;23.226;2023-03-18T03:05:09;100731.25;;;1.17;55.14
56241;BME280;42155;53.096;23.226;2023-03-18T03:07:10;100741.59;;;1.20;55.09
56241;BME280;42155;53.096;23.226;2023-03-18T03:09:12;100739.06;;;1.18;55.11
56241;BME280;42155;53.096;23.226;2023-03-18T03:11:15;100743.34;;;1.21;55.48
56241;BME280;42155;53.096;23.226;2023-03-18T03:13:16;100687.66;;;0.88;55.24
56241;BME280;42155;53.096;23.226;2023-03-18T03:15:17;100680.72;;;0.87;55.69
56241;BME280;42155;53.096;23.226;2023-03-18T03:17:17;100722.06;;;1.04;55.32
56241;BME280;42155;53.096;23.226;2023-03-18T03:19:18;100654.28;;;0.68;55.22
56241;BME280;42155;53.096;23.226;2023-03-18T03:21:18;100718.69;;;1.00;55.61
56241;BME280;42155;53.096;23.226;2023-03-18T03:23:19;100717.75;;;1.02;55.55
56241;BME280;42155;53.096;23.226;2023-03-18T03:25:19;100737.28;;;1.19;55.25
56241;BME280;42155;53.096;23.226;2023-03-18T03:27:20;100711.16;;;0.89;55.05
56241;BME280;42155;53.096;23.226;2023-03-18T03:29:20;100719.38;;;1.07;55.28
56241;BME280;42155;53.096;23.226;2023-03-18T03:31:20;100723.59;;;1.11;55.51
56241;BME280;42155;53.096;23.226;2023-03-18T03:33:22;100734.69;;;1.19;55.38
56241;BME280;42155;53.096;23.226;2023-03-18T03:35:23;100729.63;;;1.13;55.13
56241;BME280;42155;53.096;23.226;2023-03-18T03:37:23;100722.72;;;1.12;55.39
56241;BME280;42155;53.096;23.226;2023-03-18T03:39:24;100714.16;;;1.05;55.23
56241;BME280;42155;53.096;23.226;2023-03-18T03:41:24;100712.38;;;1.07;55.43
56241;BME280;42155;53.096;23.226;2023-03-18T03:43:24;100657.63;;;0.73;55.11
56241;BME280;42155;53.096;23.226;2023-03-18T03:45:25;100713.41;;;1.01;55.18
56241;BME280;42155;53.096;23.226;2023-03-18T03:47:25;100735.53;;;1.19;55.12
56241;BME280;42155;53.096;23.226;2023-03-18T03:49:26;100733.78;;;1.20;55.22
56241;BME280;42155;53.096;23.226;2023-03-18T03:51:27;100724.34;;;1.16;55.59
56241;BME280;42155;53.096;23.226;2023-03-18T03:53:28;100725.94;;;1.20;55.65
56241;BME280;42155;53.096;23.226;2023-03-18T03:55:28;100690.91;;;0.97;55.60
56241;BME280;42155;53.096;23.226;2023-03-18T03:57:28;100712.25;;;1.12;55.68
56241;BME280;42155;53.096;23.226;2023-03-18T03:59:29;100727.66;;;1.21;55.55
56241;BME280;42155;53.096;23.226;2023-03-18T04:01:30;100721.59;;;1.20;55.17
56241;BME280;42155;53.096;23.226;2023-03-18T04:03:31;100727.66;;;1.21;55.21
56241;BME280;42155;53.096;23.226;2023-03-18T04:05:31;100726.81;;;1.20;55.32
56241;BME280;42155;53.096;23.226;2023-03-18T04:07:31;100725.03;;;1.21;55.78
56241;BME280;42155;53.096;23.226;2023-03-18T04:09:32;100719.91;;;1.18;55.74
56241;BME280;42155;53.096;23.226;2023-03-18T04:11:32;100723.38;;;1.18;55.12
56241;BME280;42155;53.096;23.226;2023-03-18T04:13:32;100726.84;;;1.19;55.31
56241;BME280;42155;53.096;23.226;2023-03-18T04:15:33;100710.63;;;1.08;55.45
56241;BME280;42155;53.096;23.226;2023-03-18T04:17:34;100730.28;;;1.21;55.33
56241;BME280;42155;53.096;23.226;2023-03-18T04:19:34;100726.03;;;1.17;55.41
56241;BME280;42155;53.096;23.226;2023-03-18T04:21:35;100721.78;;;1.13;55.32
56241;BME280;42155;53.096;23.226;2023-03-18T04:23:35;100731.25;;;1.17;55.96
56241;BME280;42155;53.096;23.226;2023-03-18T04:25:35;100703.84;;;1.00;55.29
56241;BME280;42155;53.096;23.226;2023-03-18T04:27:41;100721.59;;;1.19;55.20
56241;BME280;42155;53.096;23.226;2023-03-18T04:29:42;100721.59;;;1.20;55.37
56241;BME280;42155;53.096;23.226;2023-03-18T04:31:42;100733.69;;;1.23;55.68
56241;BME280;42155;53.096;23.226;2023-03-18T04:33:43;100715.84;;;1.08;55.20
56241;BME280;42155;53.096;23.226;2023-03-18T04:35:58;100739.00;;;1.20;55.86
56241;BME280;42155;53.096;23.226;2023-03-18T04:37:58;100734.69;;;1.19;55.45
56241;BME280;42155;53.096;23.226;2023-03-18T04:39:59;100737.22;;;1.22;55.49
56241;BME280;42155;53.096;23.226;2023-03-18T04:42:00;100734.53;;;1.23;55.41
56241;BME280;42155;53.096;23.226;2023-03-18T04:44:00;100717.28;;;1.18;55.87
56241;BME280;42155;53.096;23.226;2023-03-18T04:46:01;100738.84;;;1.26;55.05
56241;BME280;42155;53.096;23.226;2023-03-18T04:48:01;100720.81;;;1.17;55.41
56241;BME280;42155;53.096;23.226;2023-03-18T04:50:01;100711.13;;;1.20;55.36
56241;BME280;42155;53.096;23.226;2023-03-18T04:52:03;100696.38;;;1.18;55.10
56241;BME280;42155;53.096;23.226;2023-03-18T04:54:03;100723.72;;;1.36;55.32
56241;BME280;42155;53.096;23.226;2023-03-18T04:56:04;100702.88;;;1.33;54.89
56241;BME280;42155;53.096;23.226;2023-03-18T04:58:05;100724.88;;;1.55;54.77
56241;BME280;42155;53.096;23.226;2023-03-18T05:00:07;100699.91;;;1.45;54.52
56241;BME280;42155;53.096;23.226;2023-03-18T05:02:08;100719.28;;;1.66;54.35
56241;BME280;42155;53.096;23.226;2023-03-18T05:04:09;100724.78;;;1.85;54.40
56241;BME280;42155;53.096;23.226;2023-03-18T05:06:18;100725.25;;;1.97;54.29
56241;BME280;42155;53.096;23.226;2023-03-18T05:08:19;100720.47;;;2.10;53.69
56241;BME280;42155;53.096;23.226;2023-03-18T05:10:19;100740.34;;;2.42;53.03
56241;BME280;42155;53.096;23.226;2023-03-18T05:12:20;100729.47;;;2.78;52.60
56241;BME280;42155;53.096;23.226;2023-03-18T05:14:20;100722.97;;;3.12;51.81
56241;BME280;42155;53.096;23.226;2023-03-18T05:16:21;100717.25;;;3.47;51.45
56241;BME280;42155;53.096;23.226;2023-03-18T05:18:21;100727.31;;;3.80;50.41
56241;BME280;42155;53.096;23.226;2023-03-18T05:20:22;100704.47;;;4.04;50.38
56241;BME280;42155;53.096;23.226;2023-03-18T05:22:22;100681.94;;;4.19;49.37
56241;BME280;42155;53.096;23.226;2023-03-18T05:24:22;100678.09;;;4.67;48.56
56241;BME280;42155;53.096;23.226;2023-03-18T05:26:23;100709.38;;;5.67;47.94
56241;BME280;42155;53.096;23.226;2023-03-18T05:28:23;100712.00;;;6.73;46.04
56241;BME280;42155;53.096;23.226;2023-03-18T05:30:24;100693.22;;;7.59;44.08
56241;BME280;42155;53.096;23.226;2023-03-18T05:32:24;100654.28;;;7.93;42.98
56241;BME280;42155;53.096;23.226;2023-03-18T05:34:24;100698.88;;;8.88;42.29
56241;BME280;42155;53.096;23.226;2023-03-18T05:36:25;100696.56;;;9.39;42.10
56241;BME280;42155;53.096;23.226;2023-03-18T05:38:25;100699.75;;;9.98;41.05
56241;BME280;42155;53.096;23.226;2023-03-18T05:40:25;100693.00;;;10.59;40.02
56241;BME280;42155;53.096;23.226;2023-03-18T05:42:26;100702.03;;;11.44;39.09
56241;BME280;42155;53.096;23.226;2023-03-18T05:44:27;100690.03;;;12.35;37.55
56241;BME280;42155;53.096;23.226;2023-03-18T05:46:27;100685.75;;;13.01;36.54
56241;BME280;42155;53.096;23.226;2023-03-18T05:48:28;100696.28;;;13.47;35.94
56241;BME280;42155;53.096;23.226;2023-03-18T05:50:38;100687.53;;;13.57;35.73
56241;BME280;42155;53.096;23.226;2023-03-18T05:52:39;100671.84;;;13.09;35.61
56241;BME280;42155;53.096;23.226;2023-03-18T05:54:39;100690.38;;;12.99;35.68
56241;BME280;42155;53.096;23.226;2023-03-18T05:56:40;100699.81;;;12.92;36.10
56241;BME280;42155;53.096;23.226;2023-03-18T05:58:40;100689.84;;;13.16;35.25
56241;BME280;42155;53.096;23.226;2023-03-18T06:00:40;100690.81;;;13.60;34.86
56241;BME280;42155;53.096;23.226;2023-03-18T06:02:41;100681.13;;;13.91;34.38
56241;BME280;42155;53.096;23.226;2023-03-18T06:04:41;100688.91;;;14.15;33.90
56241;BME280;42155;53.096;23.226;2023-03-18T06:06:42;100695.25;;;14.14;33.60
56241;BME280;42155;53.096;23.226;2023-03-18T06:08:42;100691.13;;;14.10;33.83
56241;BME280;42155;53.096;23.226;2023-03-18T06:10:42;100683.13;;;14.10;33.49
56241;BME280;42155;53.096;23.226;2023-03-18T06:12:43;100696.94;;;14.36;32.96
56241;BME280;42155;53.096;23.226;2023-03-18T06:14:44;100668.81;;;14.53;32.75
56241;BME280;42155;53.096;23.226;2023-03-18T06:16:44;100683.34;;;15.21;31.95
56241;BME280;42155;53.096;23.226;2023-03-18T06:18:45;100677.31;;;16.08;31.24
56241;BME280;42155;53.096;23.226;2023-03-18T06:20:45;100684.88;;;17.08;29.88
56241;BME280;42155;53.096;23.226;2023-03-18T06:22:46;100665.78;;;17.66;29.27
56241;BME280;42155;53.096;23.226;2023-03-18T06:24:46;100688.91;;;18.13;28.76
56241;BME280;42155;53.096;23.226;2023-03-18T06:26:46;100685.31;;;18.48;28.01
56241;BME280;42155;53.096;23.226;2023-03-18T06:28:47;100653.69;;;18.42;28.17
56241;BME280;42155;53.096;23.226;2023-03-18T06:30:47;100686.25;;;18.82;28.08
56241;BME280;42155;53.096;23.226;2023-03-18T06:32:47;100658.25;;;19.36;27.18
56241;BME280;42155;53.096;23.226;2023-03-18T06:34:48;100661.34;;;19.57;26.90
56241;BME280;42155;53.096;23.226;2023-03-18T06:36:48;100654.31;;;18.62;28.06
56241;BME280;42155;53.096;23.226;2023-03-18T06:38:49;100687.50;;;17.45;29.18
56241;BME280;42155;53.096;23.226;2023-03-18T06:40:49;100678.28;;;16.07;30.47
56241;BME280;42155;53.096;23.226;2023-03-18T06:42:50;100702.59;;;15.15;31.70
56241;BME280;42155;53.096;23.226;2023-03-18T06:44:50;100697.97;;;14.24;32.66
56241;BME280;42155;53.096;23.226;2023-03-18T06:46:50;100705.59;;;13.53;33.84
56241;BME280;42155;53.096;23.226;2023-03-18T06:48:51;100707.19;;;13.11;34.60
56241;BME280;42155;53.096;23.226;2023-03-18T06:50:51;100703.63;;;12.65;34.78
56241;BME280;42155;53.096;23.226;2023-03-18T06:52:52;100700.88;;;12.20;35.32
56241;BME280;42155;53.096;23.226;2023-03-18T06:54:52;100721.31;;;11.96;35.85
56241;BME280;42155;53.096;23.226;2023-03-18T06:56:53;100706.31;;;11.71;35.93
56241;BME280;42155;53.096;23.226;2023-03-18T06:58:53;100682.41;;;11.34;36.08
56241;BME280;42155;53.096;23.226;2023-03-18T07:00:54;100710.88;;;11.32;36.94
56241;BME280;42155;53.096;23.226;2023-03-18T07:02:54;100700.16;;;11.21;36.36
56241;BME280;42155;53.096;23.226;2023-03-18T07:04:54;100685.78;;;10.87;36.84
56241;BME280;42155;53.096;23.226;2023-03-18T07:06:55;100701.59;;;10.76;37.10
56241;BME280;42155;53.096;23.226;2023-03-18T07:08:55;100669.31;;;10.31;37.31
56241;BME280;42155;53.096;23.226;2023-03-18T07:10:56;100697.88;;;10.40;37.41
56241;BME280;42155;53.096;23.226;2023-03-18T07:12:56;100699.97;;;10.35;37.54
56241;BME280;42155;53.096;23.226;2023-03-18T07:14:57;100697.75;;;10.29;37.68
56241;BME280;42155;53.096;23.226;2023-03-18T07:16:57;100685.06;;;10.19;37.78
56241;BME280;42155;53.096;23.226;2023-03-18T07:18:57;100710.56;;;10.35;38.15
56241;BME280;42155;53.096;23.226;2023-03-18T07:20:58;100708.91;;;10.47;38.08
56241;BME280;42155;53.096;23.226;2023-03-18T07:22:58;100640.56;;;9.98;38.38
56241;BME280;42155;53.096;23.226;2023-03-18T07:24:59;100686.69;;;10.35;38.66
56241;BME280;42155;53.096;23.226;2023-03-18T07:26:59;100717.59;;;10.36;38.60
56241;BME280;42155;53.096;23.226;2023-03-18T07:28:59;100695.47;;;10.23;38.58
56241;BME280;42155;53.096;23.226;2023-03-18T07:31:00;100705.91;;;10.26;38.39
56241;BME280;42155;53.096;23.226;2023-03-18T07:33:00;100679.28;;;10.00;38.51
56241;BME280;42155;53.096;23.226;2023-03-18T07:35:02;100698.59;;;10.02;39.10
56241;BME280;42155;53.096;23.226;2023-03-18T07:37:02;100662.38;;;9.76;39.16
56241;BME280;42155;53.096;23.226;2023-03-18T07:39:04;100694.75;;;9.93;39.42
56241;BME280;42155;53.096;23.226;2023-03-18T07:41:05;100699.13;;;10.07;38.89
56241;BME280;42155;53.096;23.226;2023-03-18T07:43:05;100680.25;;;9.99;39.39
56241;BME280;42155;53.096;23.226;2023-03-18T07:45:07;100696.41;;;10.09;39.41
56241;BME280;42155;53.096;23.226;2023-03-18T07:47:07;100696.09;;;10.13;39.40
56241;BME280;42155;53.096;23.226;2023-03-18T07:49:08;100692.81;;;10.23;39.46
56241;BME280;42155;53.096;23.226;2023-03-18T07:51:08;100692.63;;;10.26;39.44
56241;BME280;42155;53.096;23.226;2023-03-18T07:53:08;100687.66;;;10.34;39.31
56241;BME280;42155;53.096;23.226;2023-03-18T07:55:09;100654.00;;;10.22;39.84
56241;BME280;42155;53.096;23.226;2023-03-18T07:57:10;100681.41;;;10.35;39.66
56241;BME280;42155;53.096;23.226;2023-03-18T07:59:11;100646.97;;;10.20;39.07
56241;BME280;42155;53.096;23.226;2023-03-18T08:01:11;100590.09;;;9.99;39.38
56241;BME280;42155;53.096;23.226;2023-03-18T08:03:12;100636.00;;;10.27;39.02
56241;BME280;42155;53.096;23.226;2023-03-18T08:05:12;100655.50;;;10.38;39.29
56241;BME280;42155;53.096;23.226;2023-03-18T08:07:12;100661.88;;;10.49;38.92
56241;BME280;42155;53.096;23.226;2023-03-18T08:09:13;100660.41;;;10.57;39.09
56241;BME280;42155;53.096;23.226;2023-03-18T08:11:13;100668.69;;;10.65;39.50
56241;BME280;42155;53.096;23.226;2023-03-18T08:13:14;100668.47;;;10.68;39.22
56241;BME280;42155;53.096;23.226;2023-03-18T08:15:14;100663.47;;;10.77;39.63
56241;BME280;42155;53.096;23.226;2023-03-18T08:17:14;100648.09;;;10.56;39.40
56241;BME280;42155;53.096;23.226;2023-03-18T08:19:15;100658.28;;;10.62;39.40
56241;BME280;42155;53.096;23.226;2023-03-18T08:21:16;100659.34;;;10.60;39.78
56241;BME280;42155;53.096;23.226;2023-03-18T08:23:16;100668.88;;;10.62;39.52
56241;BME280;42155;53.096;23.226;2023-03-18T08:25:16;100661.03;;;10.48;39.69
56241;BME280;42155;53.096;23.226;2023-03-18T08:27:17;100644.06;;;10.38;39.72
56241;BME280;42155;53.096;23.226;2023-03-18T08:29:17;100663.47;;;10.51;39.71
56241;BME280;42155;53.096;23.226;2023-03-18T08:31:18;100628.56;;;10.32;39.89
56241;BME280;42155;53.096;23.226;2023-03-18T08:33:18;100648.00;;;10.45;40.09
56241;BME280;42155;53.096;23.226;2023-03-18T08:35:19;100634.94;;;10.42;39.81
56241;BME280;42155;53.096;23.226;2023-03-18T08:37:19;100662.09;;;10.58;40.14
56241;BME280;42155;53.096;23.226;2023-03-18T08:39:19;100658.72;;;10.56;40.16
56241;BME280;42155;53.096;23.226;2023-03-18T08:41:20;100637.69;;;10.53;40.24
56241;BME280;42155;53.096;23.226;2023-03-18T08:43:20;100644.91;;;10.64;40.68
56241;BME280;42155;53.096;23.226;2023-03-18T08:45:20;100641.09;;;10.68;40.62
56241;BME280;42155;53.096;23.226;2023-03-18T08:47:21;100649.66;;;10.84;40.19
56241;BME280;42155;53.096;23.226;2023-03-18T08:49:21;100645.09;;;10.86;40.84
56241;BME280;42155;53.096;23.226;2023-03-18T08:51:21;100645.31;;;10.96;40.69
56241;BME280;42155;53.096;23.226;2023-03-18T08:53:22;100630.63;;;10.90;40.85
56241;BME280;42155;53.096;23.226;2023-03-18T08:55:27;100650.38;;;10.99;41.00
56241;BME280;42155;53.096;23.226;2023-03-18T08:57:28;100648.69;;;10.98;40.49
56241;BME280;42155;53.096;23.226;2023-03-18T08:59:30;100593.41;;;10.66;41.19
56241;BME280;42155;53.096;23.226;2023-03-18T09:01:30;100643.56;;;10.95;41.13
56241;BME280;42155;53.096;23.226;2023-03-18T09:03:31;100576.88;;;10.50;41.05
56241;BME280;42155;53.096;23.226;2023-03-18T09:05:31;100655.72;;;10.86;41.24
56241;BME280;42155;53.096;23.226;2023-03-18T09:07:33;100634.50;;;10.74;41.00
56241;BME280;42155;53.096;23.226;2023-03-18T09:09:34;100642.66;;;10.70;41.77
56241;BME280;42155;53.096;23.226;2023-03-18T09:11:34;100636.31;;;10.60;41.83
56241;BME280;42155;53.096;23.226;2023-03-18T09:13:34;100641.81;;;10.57;42.00
56241;BME280;42155;53.096;23.226;2023-03-18T09:15:35;100630.47;;;10.55;42.57
56241;BME280;42155;53.096;23.226;2023-03-18T09:17:36;100640.44;;;10.64;42.10
56241;BME280;42155;53.096;23.226;2023-03-18T09:19:37;100638.31;;;10.69;42.30
56241;BME280;42155;53.096;23.226;2023-03-18T09:21:37;100627.69;;;10.69;42.72
56241;BME280;42155;53.096;23.226;2023-03-18T09:23:38;100646.38;;;10.81;42.23
56241;BME280;42155;53.096;23.226;2023-03-18T09:25:39;100620.47;;;10.71;42.53
56241;BME280;42155;53.096;23.226;2023-03-18T09:27:39;100582.38;;;10.60;42.86
56241;BME280;42155;53.096;23.226;2023-03-18T09:29:40;100622.78;;;10.89;42.77
56241;BME280;42155;53.096;23.226;2023-03-18T09:31:40;100631.06;;;10.97;42.40
56241;BME280;42155;53.096;23.226;2023-03-18T09:33:43;100637.00;;;11.01;42.19
56241;BME280;42155;53.096;23.226;2023-03-18T09:35:49;100613.63;;;10.93;42.90
56241;BME280;42155;53.096;23.226;2023-03-18T09:37:50;100600.88;;;10.98;42.88
56241;BME280;42155;53.096;23.226;2023-03-18T09:39:50;100599.81;;;11.01;43.24
56241;BME280;42155;53.096;23.226;2023-03-18T09:44:20;100608.13;;;10.96;43.44
56241;BME280;42155;53.096;23.226;2023-03-18T09:51:04;100613.81;;;11.03;43.80
56241;BME280;42155;53.096;23.226;2023-03-18T09:53:21;100606.50;;;10.93;43.89
56241;BME280;42155;53.096;23.226;2023-03-18T09:55:26;100615.56;;;10.91;43.38
56241;BME280;42155;53.096;23.226;2023-03-18T09:57:32;100611.94;;;10.92;43.61
56241;BME280;42155;53.096;23.226;2023-03-18T09:59:37;100603.97;;;10.92;43.82
56241;BME280;42155;53.096;23.226;2023-03-18T10:01:40;100613.63;;;10.93;43.73
56241;BME280;42155;53.096;23.226;2023-03-18T10:04:14;100608.31;;;10.93;44.65
56241;BME280;42155;53.096;23.226;2023-03-18T10:06:18;100550.09;;;10.53;44.53
56241;BME280;42155;53.096;23.226;2023-03-18T10:10:46;100595.69;;;10.96;44.68
56241;BME280;42155;53.096;23.226;2023-03-18T10:12:52;100532.34;;;10.66;44.64
56241;BME280;42155;53.096;23.226;2023-03-18T10:17:31;100591.66;;;10.91;44.46
56241;BME280;42155;53.096;23.226;2023-03-18T10:19:34;100601.41;;;10.90;44.93
56241;BME280;42155;53.096;23.226;2023-03-18T10:25:53;100586.06;;;10.83;44.92
56241;BME280;42155;53.096;23.226;2023-03-18T10:32:48;100573.25;;;11.01;44.86
56241;BME280;42155;53.096;23.226;2023-03-18T10:39:39;100570.50;;;10.89;45.52
56241;BME280;42155;53.096;23.226;2023-03-18T10:41:42;100552.50;;;10.82;45.56
56241;BME280;42155;53.096;23.226;2023-03-18T10:43:48;100527.56;;;10.71;45.25
56241;BME280;42155;53.096;23.226;2023-03-18T10:46:02;100556.72;;;10.84;44.86
56241;BME280;42155;53.096;23.226;2023-03-18T10:48:13;100557.81;;;10.82;45.22
56241;BME280;42155;53.096;23.226;2023-03-18T10:50:22;100575.16;;;10.99;45.53
56241;BME280;42155;53.096;23.226;2023-03-18T10:54:43;100563.38;;;11.03;44.36
56241;BME280;42155;53.096;23.226;2023-03-18T10:56:44;100576.25;;;10.96;44.59
56241;BME280;42155;53.096;23.226;2023-03-18T10:58:45;100560.75;;;10.90;44.75
56241;BME280;42155;53.096;23.226;2023-03-18T11:00:45;100572.00;;;10.93;45.00
56241;BME280;42155;53.096;23.226;2023-03-18T11:02:46;100569.03;;;10.85;45.05